createdAt,value
2023-02-11T00:00:27.881Z,-2.90
2023-02-11T00:03:29.679Z,-2.80
2023-02-11T00:06:33.176Z,-2.80
2023-02-11T00:09:34.902Z,-2.70
2023-02-11T00:12:37.444Z,-2.70
2023-02-11T00:15:39.173Z,-2.60
2023-02-11T00:18:40.919Z,-2.60
2023-02-11T00:21:42.713Z,-2.60
2023-02-11T00:24:45.110Z,-2.50
2023-02-11T00:27:46.818Z,-2.50
2023-02-11T00:30:55.448Z,-2.50
2023-02-11T00:33:57.276Z,-2.50
2023-02-11T00:36:59.300Z,-2.50
2023-02-11T00:40:01.026Z,-2.60
2023-02-11T00:43:02.799Z,-2.60
2023-02-11T00:46:04.788Z,-2.60
2023-02-11T00:49:06.613Z,-2.60
2023-02-11T00:52:08.340Z,-2.60
2023-02-11T00:55:10.133Z,-2.60
2023-02-11T00:58:11.883Z,-2.60
2023-02-11T01:01:14.116Z,-2.60
2023-02-11T01:04:15.886Z,-2.60
2023-02-11T01:07:17.627Z,-2.60
2023-02-11T01:10:19.483Z,-2.60
2023-02-11T01:13:21.572Z,-2.50
2023-02-11T01:16:23.457Z,-2.50
2023-02-11T01:19:25.263Z,-2.50
2023-02-11T01:22:27.012Z,-2.50
2023-02-11T01:25:28.816Z,-2.40
2023-02-11T01:28:31.175Z,-2.40
2023-02-11T01:31:33.079Z,-2.40
2023-02-11T01:34:34.956Z,-2.40
2023-02-11T01:37:37.069Z,-2.40
2023-02-11T01:40:38.815Z,-2.40
2023-02-11T01:43:47.370Z,-2.40
2023-02-11T01:46:49.312Z,-2.40
2023-02-11T01:49:56.832Z,-2.40
2023-02-11T01:53:18.634Z,-2.40
2023-02-11T01:56:39.466Z,-2.40
2023-02-11T01:59:56.721Z,-2.40
2023-02-11T02:07:05.371Z,-2.40
2023-02-11T02:10:16.621Z,-2.30
2023-02-11T02:13:18.403Z,-2.40
2023-02-11T02:16:22.239Z,-2.30
2023-02-11T02:19:39.431Z,-2.30
2023-02-11T02:23:00.981Z,-2.30
2023-02-11T02:26:19.928Z,-2.20
2023-02-11T02:29:36.715Z,-2.20
2023-02-11T02:33:23.119Z,-2.10
2023-02-11T02:36:37.052Z,-2.10
2023-02-11T02:39:39.189Z,-2.00
2023-02-11T02:42:42.001Z,-2.00
2023-02-11T02:45:43.725Z,-2.00
2023-02-11T02:48:46.659Z,-1.90
2023-02-11T02:52:08.271Z,-1.90
2023-02-11T02:55:26.357Z,-1.90
2023-02-11T02:59:20.845Z,-1.90
2023-02-11T03:02:34.159Z,-1.80
2023-02-11T03:05:53.507Z,-1.80
2023-02-11T03:09:10.355Z,-1.80
2023-02-11T03:12:14.583Z,-1.80
2023-02-11T03:15:18.311Z,-1.80
2023-02-11T03:18:26.167Z,-1.70
2023-02-11T03:21:31.094Z,-1.70
2023-02-11T03:24:38.046Z,-1.70
2023-02-11T03:27:52.848Z,-1.70
2023-02-11T03:31:23.133Z,-1.70
2023-02-11T03:34:47.607Z,-1.70
2023-02-11T03:37:55.491Z,-1.70
2023-02-11T03:40:59.759Z,-1.70
2023-02-11T03:44:02.737Z,-1.80
2023-02-11T03:47:07.970Z,-1.80
2023-02-11T03:50:13.833Z,-1.80
2023-02-11T03:53:17.420Z,-1.80
2023-02-11T03:56:23.265Z,-1.80
2023-02-11T03:59:25.718Z,-1.80
2023-02-11T04:02:31.550Z,-1.80
2023-02-11T04:05:33.606Z,-1.80
2023-02-11T04:08:35.618Z,-1.80
2023-02-11T04:11:37.561Z,-1.80
2023-02-11T04:14:39.374Z,-1.80
2023-02-11T04:17:41.104Z,-1.80
2023-02-11T04:20:43.034Z,-1.80
2023-02-11T04:23:44.804Z,-1.80
2023-02-11T04:26:46.624Z,-1.80
2023-02-11T04:29:48.574Z,-1.70
2023-02-11T04:32:50.623Z,-1.70
2023-02-11T04:35:52.635Z,-1.70
2023-02-11T04:38:54.499Z,-1.70
2023-02-11T04:41:56.296Z,-1.60
2023-02-11T04:44:58.044Z,-1.60
2023-02-11T04:48:01.269Z,-1.60
2023-02-11T04:51:03.212Z,-1.60
2023-02-11T04:54:05.095Z,-1.50
2023-02-11T04:57:06.819Z,-1.50
2023-02-11T05:00:10.047Z,-1.50
2023-02-11T05:03:12.321Z,-1.50
2023-02-11T05:06:14.258Z,-1.40
2023-02-11T05:09:16.747Z,-1.40
2023-02-11T05:12:18.525Z,-1.40
2023-02-11T05:15:20.367Z,-1.40
2023-02-11T05:18:22.142Z,-1.30
2023-02-11T05:21:24.073Z,-1.40
2023-02-11T05:24:25.897Z,-1.40
2023-02-11T05:27:27.669Z,-1.40
2023-02-11T05:30:29.831Z,-1.40
2023-02-11T05:33:31.730Z,-1.40
2023-02-11T05:36:33.626Z,-1.40
2023-02-11T05:39:35.323Z,-1.30
2023-02-11T05:42:37.084Z,-1.30
2023-02-11T05:45:38.794Z,-1.30
2023-02-11T05:48:40.528Z,-1.30
2023-02-11T05:51:42.263Z,-1.30
2023-02-11T05:54:44.017Z,-1.30
2023-02-11T05:57:45.730Z,-1.30
2023-02-11T06:00:47.420Z,-1.30
2023-02-11T06:03:51.553Z,-1.30
2023-02-11T06:06:53.368Z,-1.30
2023-02-11T06:09:55.032Z,-1.30
2023-02-11T06:12:56.820Z,-1.30
2023-02-11T06:15:59.848Z,-1.20
2023-02-11T06:19:01.690Z,-1.20
2023-02-11T06:22:03.900Z,-1.20
2023-02-11T06:25:06.346Z,-1.20
2023-02-11T06:28:08.615Z,-1.20
2023-02-11T06:31:11.983Z,-1.20
2023-02-11T06:34:13.936Z,-1.10
2023-02-11T06:37:15.747Z,-1.10
2023-02-11T06:40:17.523Z,-1.10
2023-02-11T06:43:19.202Z,-1.10
2023-02-11T06:46:24.239Z,-1.10
2023-02-11T06:49:26.082Z,-1.00
2023-02-11T06:52:27.771Z,-1.00
2023-02-11T06:55:29.424Z,-1.00
2023-02-11T06:58:31.261Z,-1.00
2023-02-11T07:01:32.999Z,-1.00
2023-02-11T07:04:34.787Z,-1.00
2023-02-11T07:07:37.323Z,-1.00
2023-02-11T07:10:39.689Z,-0.90
2023-02-11T07:13:41.650Z,-0.90
2023-02-11T07:16:45.521Z,-0.90
2023-02-11T07:19:47.295Z,-0.90
2023-02-11T07:22:49.124Z,-0.80
2023-02-11T07:25:51.051Z,-0.80
2023-02-11T07:28:53.489Z,-0.80
2023-02-11T07:31:55.332Z,-0.70
2023-02-11T07:34:57.720Z,-0.70
2023-02-11T07:38:00.698Z,-0.70
2023-02-11T07:41:05.273Z,-0.60
2023-02-11T07:44:10.120Z,-0.60
2023-02-11T07:47:11.831Z,-0.50
2023-02-11T07:50:13.627Z,-0.50
2023-02-11T07:53:15.486Z,-0.40
2023-02-11T07:56:19.361Z,-0.40
2023-02-11T07:59:21.256Z,-0.40
2023-02-11T08:02:23.060Z,-0.30
2023-02-11T08:05:24.902Z,-0.30
2023-02-11T08:08:27.730Z,-0.20
2023-02-11T08:11:29.700Z,-0.20
2023-02-11T08:14:32.754Z,-0.10
2023-02-11T08:17:36.062Z,-0.10
2023-02-11T08:20:37.773Z,0.00
2023-02-11T08:23:41.144Z,0.00
2023-02-11T08:26:43.523Z,0.10
2023-02-11T08:29:45.264Z,0.20
2023-02-11T08:32:47.442Z,0.30
2023-02-11T08:35:49.151Z,0.40
2023-02-11T08:38:51.422Z,0.40
2023-02-11T08:41:56.472Z,0.50
2023-02-11T08:44:58.206Z,0.50
2023-02-11T08:48:00.543Z,0.60
2023-02-11T08:51:09.940Z,0.70
2023-02-11T08:54:12.706Z,0.70
2023-02-11T08:57:14.437Z,0.70
2023-02-11T09:00:16.871Z,0.70
2023-02-11T09:03:18.738Z,0.80
2023-02-11T09:06:22.352Z,0.80
2023-02-11T09:09:24.375Z,0.90
2023-02-11T09:12:26.263Z,0.90
2023-02-11T09:15:28.182Z,0.90
2023-02-11T09:18:30.297Z,1.00
2023-02-11T09:21:32.358Z,1.00
2023-02-11T09:24:34.253Z,1.00
2023-02-11T09:27:36.064Z,1.00
2023-02-11T09:30:38.651Z,1.00
2023-02-11T09:33:47.651Z,1.10
2023-02-11T09:36:49.399Z,1.10
2023-02-11T09:39:51.424Z,1.20
2023-02-11T09:43:11.737Z,1.20
2023-02-11T09:46:16.152Z,1.30
2023-02-11T09:49:23.192Z,1.30
2023-02-11T09:52:49.095Z,1.40
2023-02-11T09:55:56.682Z,1.40
2023-02-11T09:58:58.421Z,1.40
2023-02-11T10:02:17.128Z,1.40
2023-02-11T10:05:53.855Z,1.40
2023-02-11T10:09:21.897Z,1.40
2023-02-11T10:12:38.348Z,1.40
2023-02-11T10:15:51.979Z,1.40
2023-02-11T10:19:11.365Z,1.40
2023-02-11T10:22:45.212Z,1.40
2023-02-11T10:25:50.727Z,1.40
2023-02-11T10:28:55.913Z,1.50
2023-02-11T10:31:58.861Z,1.50
2023-02-11T10:35:04.289Z,1.50
2023-02-11T10:38:06.009Z,1.50
2023-02-11T10:41:16.165Z,1.50
2023-02-11T10:44:40.126Z,1.50
2023-02-11T10:47:42.737Z,1.50
2023-02-11T10:50:44.895Z,1.60
2023-02-11T10:53:49.394Z,1.60
2023-02-11T10:56:59.502Z,1.60
2023-02-11T11:00:07.718Z,1.60
2023-02-11T11:03:37.854Z,1.60
2023-02-11T11:06:39.712Z,1.60
2023-02-11T11:09:49.497Z,1.60
2023-02-11T11:12:51.327Z,1.60
2023-02-11T11:16:12.029Z,1.60
2023-02-11T11:19:22.693Z,1.60
2023-02-11T11:22:24.493Z,1.60
2023-02-11T11:25:29.559Z,1.60
2023-02-11T11:28:38.766Z,1.50
2023-02-11T11:31:57.886Z,1.50
2023-02-11T11:35:03.549Z,1.50
2023-02-11T11:38:05.766Z,1.50
2023-02-11T11:41:24.514Z,1.50
2023-02-11T11:44:26.258Z,1.50
2023-02-11T11:47:42.960Z,1.50
2023-02-11T11:50:48.144Z,1.50
2023-02-11T11:54:13.119Z,1.50
2023-02-11T11:57:22.033Z,1.50
2023-02-11T12:00:37.723Z,1.50
2023-02-11T12:04:02.442Z,1.50
2023-02-11T12:07:25.947Z,1.50
2023-02-11T12:11:06.293Z,1.50
2023-02-11T12:14:22.869Z,1.50
2023-02-11T12:17:52.314Z,1.60
2023-02-11T12:20:54.048Z,1.60
2023-02-11T12:24:09.693Z,1.60
2023-02-11T12:27:42.331Z,1.60
2023-02-11T12:31:06.443Z,1.60
2023-02-11T12:34:26.210Z,1.70
2023-02-11T12:37:38.438Z,1.70
2023-02-11T12:41:10.380Z,1.70
2023-02-11T12:44:29.905Z,1.70
2023-02-11T12:48:07.430Z,1.80
2023-02-11T12:51:11.939Z,1.80
2023-02-11T12:54:27.295Z,1.80
2023-02-11T12:57:33.341Z,1.80
2023-02-11T13:00:49.718Z,1.80
2023-02-11T13:04:06.421Z,1.80
2023-02-11T13:07:19.184Z,1.80
2023-02-11T13:10:25.083Z,1.90
2023-02-11T13:13:34.455Z,1.90
2023-02-11T13:16:43.840Z,1.90
2023-02-11T13:19:52.979Z,1.90
2023-02-11T13:23:28.126Z,1.90
2023-02-11T13:26:57.798Z,1.90
2023-02-11T13:30:24.710Z,1.90
2023-02-11T13:33:39.565Z,2.00
2023-02-11T13:36:41.416Z,2.00
2023-02-11T13:39:43.150Z,2.00
2023-02-11T13:42:51.446Z,2.00
2023-02-11T13:46:06.937Z,2.10
2023-02-11T13:49:25.987Z,2.10
2023-02-11T13:52:32.120Z,2.10
2023-02-11T13:55:34.948Z,2.20
2023-02-11T13:58:46.689Z,2.20
2023-02-11T14:02:17.546Z,2.20
2023-02-11T14:05:42.931Z,2.20
2023-02-11T14:09:09.162Z,2.20
2023-02-11T14:12:31.575Z,2.30
2023-02-11T14:15:45.200Z,2.30
2023-02-11T14:18:50.030Z,2.30
2023-02-11T14:21:51.777Z,2.40
2023-02-11T14:24:56.961Z,2.40
2023-02-11T14:28:19.040Z,2.40
2023-02-11T14:31:37.252Z,2.50
2023-02-11T14:35:26.899Z,2.50
2023-02-11T14:39:06.168Z,2.60
2023-02-11T14:42:20.790Z,2.60
2023-02-11T14:45:28.799Z,2.60
2023-02-11T14:48:35.145Z,2.60
2023-02-11T14:51:40.523Z,2.70
2023-02-11T14:54:44.047Z,2.70
2023-02-11T14:57:45.895Z,2.70
2023-02-11T15:01:06.441Z,2.70
2023-02-11T15:04:27.768Z,2.70
2023-02-11T15:07:29.556Z,2.70
2023-02-11T15:10:44.773Z,2.70
2023-02-11T15:13:49.685Z,2.70
2023-02-11T15:16:53.734Z,2.70
2023-02-11T15:19:59.162Z,2.70
2023-02-11T15:23:05.700Z,2.70
2023-02-11T15:26:15.252Z,2.80
2023-02-11T15:29:17.859Z,2.70
2023-02-11T15:32:25.641Z,2.70
2023-02-11T15:35:37.806Z,2.70
2023-02-11T15:38:40.964Z,2.70
2023-02-11T15:41:44.386Z,2.70
2023-02-11T15:44:50.579Z,2.70
2023-02-11T15:48:18.692Z,2.70
2023-02-11T15:51:31.620Z,2.60
2023-02-11T15:54:33.497Z,2.60
2023-02-11T15:57:35.362Z,2.60
2023-02-11T16:00:46.169Z,2.60
2023-02-11T16:03:51.363Z,2.60
2023-02-11T16:06:54.673Z,2.50
2023-02-11T16:09:58.557Z,2.50
2023-02-11T16:13:03.151Z,2.50
2023-02-11T16:16:17.187Z,2.40
2023-02-11T16:19:22.976Z,2.50
2023-02-11T16:22:29.970Z,2.40
2023-02-11T16:25:34.395Z,2.40
2023-02-11T16:28:37.553Z,2.40
2023-02-11T16:31:45.372Z,2.40
2023-02-11T16:34:47.597Z,2.40
2023-02-11T16:37:49.341Z,2.30
2023-02-11T16:40:51.555Z,2.30
2023-02-11T16:43:57.833Z,2.30
2023-02-11T16:47:01.411Z,2.30
2023-02-11T16:50:04.572Z,2.30
2023-02-11T16:53:06.471Z,2.40
2023-02-11T16:56:14.148Z,2.30
2023-02-11T16:59:16.080Z,2.30
2023-02-11T17:02:25.799Z,2.30
2023-02-11T17:05:27.589Z,2.30
2023-02-11T17:08:29.976Z,2.30
2023-02-11T17:11:31.744Z,2.20
2023-02-11T17:14:33.436Z,2.20
2023-02-11T17:17:35.256Z,2.20
2023-02-11T17:20:36.997Z,2.20
2023-02-11T17:23:39.096Z,2.20
2023-02-11T17:26:41.688Z,2.20
2023-02-11T17:29:43.684Z,2.20
2023-02-11T17:32:47.257Z,2.20
2023-02-11T17:35:49.174Z,2.20
2023-02-11T17:38:51.756Z,2.20
2023-02-11T17:41:53.486Z,2.20
2023-02-11T17:44:55.221Z,2.20
2023-02-11T17:47:56.932Z,2.20
2023-02-11T17:50:59.033Z,2.10
2023-02-11T17:54:03.297Z,2.10
2023-02-11T17:57:05.071Z,2.10
2023-02-11T18:00:08.282Z,2.10
2023-02-11T18:03:09.989Z,2.10
2023-02-11T18:06:12.308Z,2.10
2023-02-11T18:09:14.205Z,2.10
2023-02-11T18:12:17.895Z,2.10
2023-02-11T18:15:19.813Z,2.10
2023-02-11T18:18:21.560Z,2.10
2023-02-11T18:21:24.145Z,2.10
2023-02-11T18:24:27.225Z,2.10
2023-02-11T18:27:29.143Z,2.10
2023-02-11T18:30:31.298Z,2.10
2023-02-11T18:33:33.511Z,2.10
2023-02-11T18:36:35.652Z,2.10
2023-02-11T18:39:37.430Z,2.10
2023-02-11T18:42:39.495Z,2.10
2023-02-11T18:45:45.271Z,2.10
2023-02-11T18:48:47.010Z,2.10
2023-02-11T18:51:48.797Z,2.10
2023-02-11T18:54:52.255Z,2.10
2023-02-11T18:57:54.265Z,2.10
2023-02-11T19:00:56.025Z,2.00
2023-02-11T19:03:59.951Z,2.10
2023-02-11T19:07:03.685Z,2.10
2023-02-11T19:10:06.191Z,2.10
2023-02-11T19:13:08.302Z,2.10
2023-02-11T19:16:11.570Z,2.10
2023-02-11T19:19:14.253Z,2.10
2023-02-11T19:22:17.098Z,2.10
2023-02-11T19:25:19.377Z,2.10
2023-02-11T19:28:21.232Z,2.10
2023-02-11T19:31:23.080Z,2.10
2023-02-11T19:34:25.092Z,2.10
2023-02-11T19:37:27.016Z,2.10
2023-02-11T19:40:28.782Z,2.10
2023-02-11T19:43:30.532Z,2.10
2023-02-11T19:46:35.675Z,2.10
2023-02-11T19:49:37.472Z,2.10
2023-02-11T19:52:40.769Z,2.10
2023-02-11T19:55:42.663Z,2.10
2023-02-11T19:58:44.450Z,2.10
2023-02-11T20:01:48.928Z,2.10
2023-02-11T20:04:50.696Z,2.10
2023-02-11T20:07:52.435Z,2.10
2023-02-11T20:10:54.299Z,2.10
2023-02-11T20:13:57.086Z,2.10
2023-02-11T20:16:58.871Z,2.10
2023-02-11T20:20:00.633Z,2.10
2023-02-11T20:23:02.383Z,2.00
2023-02-11T20:26:32.180Z,1.90
2023-02-11T20:29:34.325Z,2.10
2023-02-11T20:32:38.429Z,2.00
2023-02-11T20:35:40.134Z,2.00
2023-02-11T20:38:42.143Z,2.00
2023-02-11T20:41:45.894Z,2.00
2023-02-11T20:44:48.057Z,2.00
2023-02-11T20:47:49.902Z,2.00
2023-02-11T20:50:51.649Z,2.10
2023-02-11T20:53:54.351Z,2.10
2023-02-11T20:56:58.195Z,2.10
2023-02-11T21:00:00.204Z,2.10
2023-02-11T21:03:02.116Z,2.10
2023-02-11T21:06:04.053Z,2.10
2023-02-11T21:09:07.642Z,2.10
2023-02-11T21:12:09.451Z,2.10
2023-02-11T21:15:12.953Z,2.10
2023-02-11T21:18:14.719Z,2.10
2023-02-11T21:21:17.851Z,2.10
2023-02-11T21:24:19.545Z,2.10
2023-02-11T21:27:21.297Z,2.10
2023-02-11T21:30:22.966Z,2.10
2023-02-11T21:33:27.099Z,2.10
2023-02-11T21:36:29.764Z,2.10
2023-02-11T21:39:31.485Z,2.10
2023-02-11T21:42:33.265Z,2.00
2023-02-11T21:45:34.974Z,2.00
2023-02-11T21:48:37.100Z,2.10
2023-02-11T21:51:39.481Z,2.00
2023-02-11T21:54:41.189Z,2.00
2023-02-11T21:57:43.452Z,2.00
2023-02-11T22:00:45.209Z,2.00
2023-02-11T22:03:47.597Z,2.10
2023-02-11T22:06:49.440Z,2.10
2023-02-11T22:09:52.200Z,2.00
2023-02-11T22:12:53.895Z,2.00
2023-02-11T22:16:04.558Z,2.00
2023-02-11T22:19:07.573Z,2.00
2023-02-11T22:22:09.521Z,2.00
2023-02-11T22:25:11.242Z,2.10
2023-02-11T22:28:13.054Z,2.10
2023-02-11T22:31:22.314Z,2.10
2023-02-11T22:34:24.086Z,2.10
2023-02-11T22:37:25.831Z,2.10
2023-02-11T22:40:27.626Z,2.10
2023-02-11T22:43:29.370Z,2.10
2023-02-11T22:46:31.129Z,2.10
2023-02-11T22:49:33.326Z,2.10
2023-02-11T22:52:36.307Z,2.10
2023-02-11T22:55:39.738Z,2.10
2023-02-11T22:58:41.477Z,2.10
2023-02-11T23:01:44.261Z,2.10
2023-02-11T23:04:48.369Z,2.10
2023-02-11T23:07:51.338Z,2.10
2023-02-11T23:10:53.607Z,2.10
2023-02-11T23:13:55.958Z,2.10
2023-02-11T23:16:57.700Z,2.00
2023-02-11T23:19:59.517Z,2.10
2023-02-11T23:23:01.296Z,2.00
2023-02-11T23:26:03.844Z,2.00
2023-02-11T23:29:05.801Z,2.00
2023-02-11T23:32:07.610Z,2.00
2023-02-11T23:35:09.339Z,2.00
2023-02-11T23:38:11.099Z,2.00
2023-02-11T23:41:13.549Z,2.00
2023-02-11T23:44:15.286Z,2.00
2023-02-11T23:47:16.967Z,2.00
2023-02-11T23:50:18.903Z,2.00
2023-02-11T23:53:20.662Z,2.00
2023-02-11T23:56:26.874Z,2.00
2023-02-11T23:59:28.582Z,2.00
